Gillette, WY (82716)

12:20 PM MDT on May 22, 2017 (GMT -0600)
McCann Heights, central Gillette | | Change Station

Elev 4590 ft 44.28 °N, 105.50 °W | Updated 2 minutes ago

Light Rain
Light Rain
42.7 °F
Feels Like 43 °F
N
2.0
Wind Variable Wind from West

Today
High -- | Low -- °F
--% Chance of Precip.
Yesterday
High -- | Low -- °F
Precip. -- in
Pressure 30.19 in
Visibility 8.0 miles
Clouds Few 1700 ft
Mostly Cloudy 2700 ft
Overcast 3400 ft
Windchill 43 °F
Dew Point 39 °F
Humidity 88%
Rainfall 0.27 in
Snow Depth Not available.
5:27 AM 8:30 PM
Waning Crescent, 13% visible
METAR KGCC 221753Z AUTO 30012KT 8SM -RA FEW017 BKN027 OVC034 07/06 A3016 RMK AO2 SLP221 P0005 60017 T00670056 10128 20050 53022
Pressure 30.19 in
Visibility 8.0 miles
Clouds Few 1700 ft
Mostly Cloudy 2700 ft
Overcast 3400 ft
Windchill 43 °F
Dew Point 39 °F
Humidity 88%
Rainfall 0.27 in
Snow Depth Not available.
5:27 AM 8:30 PM
Waning Crescent, 13% visible
METAR KGCC 221753Z AUTO 30012KT 8SM -RA FEW017 BKN027 OVC034 07/06 A3016 RMK AO2 SLP221 P0005 60017 T00670056 10128 20050 53022

Get Severe Weather Alerts

Thanks for signing up!

Be on the lookout for a verification email in your inbox.

You'll start receiving the daily forecast at 8 AM.

×

10-Day Weather Forecast

Almanac

Astronomy

May. 22, 2017 Rise Set
Actual Time
Civil Twilight
Nautical Twilight
Astronomical Twilight
Moon
Length of Visible Light
Length of Day
Tomorrow will be .
, % of the Moon is Illuminated

Today's Extremes

State Highs State Lows

Community

WunderPhotos

Category 6

Welcome to Category 6. This is the collective home for Weather Underground's featured writeups by Dr. Jeff Masters (right), Bob Henson (left), Chris Burt, and other regular contributors.

Nearby

Air Quality

  Air Quality AQ Index Pollutant
Not available.

Snow Depth

Station Depth Elevation

Earthquake Activity

City Distance Mag. Time & Date
Minimum magnitude displayed is 2.5.

Coastal Water Temperatures

Place Temperature

Stations

Nearby Weather Stations

Station Location Temp. Windchill Dew Point Humidity Wind Precip. Elev Updated Type
                   

Watches & Warnings

There are currently no watches in effect.